Eizan Maru No.18 — JD3750 — position and weather

sailwx.info

Track history (hours):
 
Tides and Currents Weather Stations Pressure Air Temp Water Temp Dewpoint Dewpoint Depression Visibility Wind Speed Wind Dir Waves Ship Positions

Eizan Maru No.18

Last reported at 2018-Jul-11 17:06 UTC. Time now 2018-Jul-23 02:20 UTC.
Position N 34°54' E 140°02'.
Warning: this ship's position is 11 days out of date.

Length 104 m; draft 6.4 m.

Type: Tanker. MMSI: 431005734.

Date/timePositionNaut miles runAvg speedWind from/ knotsBaromVisibWave heightAir tempDewpointWater temp
2018-Jul-11 17:06N 34°54' E 140°02'214.0
2018-Jul-11 16:59N 34°53' E 140°00'713.9
2018-Jul-11 16:29N 34°51' E 139°52'714.5
2018-Jul-11 16:00N 34°54' E 139°45'713.8
2018-Jul-11 15:30N 35°01' E 139°43'713.7
2018-Jul-11 15:00N 35°08' E 139°44'612.7
2018-Jul-11 14:30N 35°14' E 139°46'611.5
2018-Jul-11 14:00N 35°19' E 139°43'612.0
2018-Jul-11 13:30N 35°25' E 139°44'713.4
2018-Jul-11 13:00N 35°29' E 139°51'712.4
2018-Jul-11 12:29N 35°33' E 139°57'4 0.6
2018-Jul-11 05:38N 35°30' E 140°02'0 0.3
2018-Jul-11 05:26N 35°30' E 140°02'3 4.9
2018-Jul-11 04:53N 35°31' E 139°58'513.0
2018-Jul-11 04:30N 35°29' E 139°53'714.1
2018-Jul-11 04:00N 35°24' E 139°47'612.5
2018-Jul-11 03:30N 35°18' E 139°44'612.9
2018-Jul-11 03:00N 35°12' E 139°47'714.9
2018-Jul-11 02:30N 35°05' E 139°45'814.7
2018-Jul-11 02:00N 34°58' E 139°44'711.7
2018-Jul-11 01:26N 34°52' E 139°48'1112.5
2018-Jul-11 00:34N 34°54' E 140°01'  
2018-Jul-06 14:16N 34°55' E 140°04'414.2
2018-Jul-06 14:00N 34°54' E 140°00'713.8
2018-Jul-06 13:30N 34°51' E 139°52'713.8
2018-Jul-06 12:59N 34°54' E 139°45'714.0
2018-Jul-06 12:30N 35°00' E 139°43'713.1
2018-Jul-06 12:00N 35°07' E 139°44'612.7
2018-Jul-06 11:30N 35°13' E 139°46'611.2
2018-Jul-06 11:00N 35°18' E 139°44'612.0
2018-Jul-06 10:31N 35°24' E 139°43'713.5
2018-Jul-06 10:00N 35°28' E 139°50'713.3
2018-Jul-06 09:30N 35°31' E 139°57'3 0.3
2018-Jul-06 00:18N 35°31' E 140°00'4 6.5
2018-Jul-05 23:43N 35°30' E 139°56'1 4.0
2018-Jul-05 23:30N 35°30' E 139°55'0 0.1
2018-Jul-05 22:57N 35°30' E 139°55'0 0.0
2018-Jul-05 22:24N 35°30' E 139°55'0 0.0
2018-Jul-05 21:54N 35°30' E 139°55'0 0.0
2018-Jul-05 21:30N 35°30' E 139°55'0 0.0
2018-Jul-05 20:51N 35°30' E 139°55'0 0.0
2018-Jul-05 20:27N 35°30' E 139°55'0 0.0
2018-Jul-05 19:57N 35°30' E 139°55'0 0.0
2018-Jul-05 19:30N 35°30' E 139°55'0 0.0
2018-Jul-05 17:27N 35°30' E 139°55'0 0.0
2018-Jul-05 17:00N 35°30' E 139°55'0 0.0
2018-Jul-05 16:30N 35°30' E 139°55'0 0.0
2018-Jul-05 15:45N 35°30' E 139°55'0 0.0
2018-Jul-05 15:30N 35°30' E 139°55'0 0.0
2018-Jul-05 14:48N 35°30' E 139°55'0 0.0
2018-Jul-05 11:39N 35°30' E 139°55'0 0.0
2018-Jul-05 11:09N 35°30' E 139°55'0 0.0
2018-Jul-05 10:51N 35°30' E 139°55'0 0.0
2018-Jul-05 09:51N 35°30' E 139°55'0 0.0
2018-Jul-05 09:27N 35°30' E 139°55'0 0.0
2018-Jul-05 09:00N 35°30' E 139°55'0 0.0
2018-Jul-05 08:30N 35°30' E 139°55'0 0.0
2018-Jul-05 08:00N 35°30' E 139°55'0 0.0
2018-Jul-05 07:30N 35°30' E 139°55'0 0.0
2018-Jul-05 06:54N 35°30' E 139°55'0 0.0
2018-Jul-05 06:15N 35°30' E 139°55'0 0.0
2018-Jul-05 05:51N 35°30' E 139°55'0 0.0
2018-Jul-05 05:27N 35°30' E 139°55'0 0.0
2018-Jul-05 04:51N 35°30' E 139°55'0 0.0
2018-Jul-05 03:15N 35°30' E 139°55'0 0.0
2018-Jul-05 02:57N 35°30' E 139°55'0 0.0
2018-Jul-05 02:30N 35°30' E 139°55'0 0.0
2018-Jul-05 00:06N 35°30' E 139°55'0 0.0
2018-Jul-04 23:51N 35°30' E 139°55'0 0.0
2018-Jul-04 23:15N 35°30' E 139°55'0 0.0
2018-Jul-04 22:51N 35°30' E 139°55'0 0.0
2018-Jul-04 22:27N 35°30' E 139°55'0 0.0
2018-Jul-04 21:54N 35°30' E 139°55'0 0.0
2018-Jul-04 21:30N 35°30' E 139°55'0 0.0
2018-Jul-04 20:57N 35°30' E 139°55'0 0.0
2018-Jul-04 20:30N 35°30' E 139°55'0 0.0
2018-Jul-04 19:51N 35°30' E 139°55'0 0.0
2018-Jul-04 19:06N 35°30' E 139°55'0 0.0
2018-Jul-04 18:45N 35°30' E 139°55'0 0.0
2018-Jul-04 18:12N 35°30' E 139°55'0 0.0
2018-Jul-04 17:51N 35°30' E 139°55'0 0.0
2018-Jul-04 17:18N 35°30' E 139°55'0 0.0
2018-Jul-04 16:57N 35°30' E 139°55'0 0.0
2018-Jul-04 16:27N 35°30' E 139°55'0 0.0
2018-Jul-04 15:36N 35°30' E 139°55'0 0.0
2018-Jul-04 15:30N 35°30' E 139°55'0 0.0
2018-Jul-04 15:00N 35°30' E 139°55'0 0.0
2018-Jul-04 14:30N 35°30' E 139°55'0 0.0
2018-Jul-04 13:57N 35°30' E 139°55'0 0.0
2018-Jul-04 13:27N 35°30' E 139°55'0 0.0
2018-Jul-04 13:00N 35°30' E 139°55'0 0.0
2018-Jul-04 12:18N 35°30' E 139°55'0 0.0
2018-Jul-04 11:57N 35°30' E 139°55'0 0.1
2018-Jul-04 11:27N 35°30' E 139°55'0 0.1
2018-Jul-04 10:51N 35°30' E 139°55'0 0.1
2018-Jul-04 10:15N 35°30' E 139°55'0 0.1
2018-Jul-04 09:42N 35°30' E 139°55'0 0.0
2018-Jul-04 09:30N 35°30' E 139°55'0 0.0
2018-Jul-04 08:42N 35°30' E 139°55'0 0.0
2018-Jul-04 08:30N 35°30' E 139°55'0 0.1
2018-Jul-04 07:57N 35°30' E 139°55'0 0.0
2018-Jul-04 07:24N 35°30' E 139°55'0 0.1
2018-Jul-04 06:48N 35°30' E 139°55'0 0.1
2018-Jul-04 06:27N 35°30' E 139°55'0 0.0
2018-Jul-04 05:51N 35°30' E 139°55'0 0.0
2018-Jul-04 05:21N 35°30' E 139°55'0 0.0
2018-Jul-04 04:57N 35°30' E 139°55'0 0.0
2018-Jul-04 04:21N 35°30' E 139°55'0 0.0
2018-Jul-04 03:51N 35°30' E 139°55'0 0.0
2018-Jul-04 03:15N 35°30' E 139°55'0 0.0
2018-Jul-04 02:48N 35°30' E 139°55'0 0.0
2018-Jul-04 02:30N 35°30' E 139°55'0 0.0
2018-Jul-04 01:54N 35°30' E 139°55'0 0.0
2018-Jul-04 01:27N 35°30' E 139°55'0 0.0
2018-Jul-04 00:18N 35°30' E 139°55'0 0.0
2018-Jul-03 23:57N 35°30' E 139°55'0 0.0
2018-Jul-03 23:27N 35°30' E 139°55'0 0.0
2018-Jul-03 22:51N 35°30' E 139°55'0 0.0
2018-Jul-03 22:30N 35°30' E 139°55'0 0.0
2018-Jul-03 22:00N 35°30' E 139°55'0 0.0
2018-Jul-03 21:24N 35°30' E 139°55'0 0.0
2018-Jul-03 20:51N 35°30' E 139°55'0 0.0
2018-Jul-03 20:30N 35°30' E 139°55'0 0.0
2018-Jul-03 19:57N 35°30' E 139°55'0 0.0
2018-Jul-03 19:30N 35°30' E 139°55'0 0.0
2018-Jul-03 19:00N 35°30' E 139°55'0 0.0
2018-Jul-03 18:27N 35°30' E 139°55'0 0.0
2018-Jul-03 17:54N 35°30' E 139°55'0 0.0
2018-Jul-03 17:30N 35°30' E 139°55'0 0.0
2018-Jul-03 16:57N 35°30' E 139°55'0 0.2
2018-Jul-03 16:30N 35°30' E 139°55'5 9.3
2018-Jul-03 16:00N 35°27' E 139°50'613.0
2018-Jul-03 15:30N 35°22' E 139°45'611.5
2018-Jul-03 15:00N 35°16' E 139°46'612.7
2018-Jul-03 14:30N 35°10' E 139°47'714.0
2018-Jul-03 14:00N 35°04' E 139°43'714.8
2018-Jul-03 13:30N 34°59' E 139°36'  
Track history (hours):
 
Tides and Currents Weather Stations Pressure Air Temp Water Temp Dewpoint Dewpoint Depression Visibility Wind Speed Wind Dir Waves Ship Positions

Eizan Maru No.18

Last reported at 2018-Jul-11 17:06 UTC. Time now 2018-Jul-23 02:20 UTC.
Position N 34°54' E 140°02'.
Warning: this ship's position is 11 days out of date.

Length 104 m; draft 6.4 m.

Type: Tanker. MMSI: 431005734.

Date/timePositionNaut miles runAvg speedWind from/ knotsBaromVisibWave heightAir tempDewpointWater temp
2018-Jul-11 17:06N 34°54' E 140°02'214.0
2018-Jul-11 16:59N 34°53' E 140°00'713.9
2018-Jul-11 16:29N 34°51' E 139°52'714.5
2018-Jul-11 16:00N 34°54' E 139°45'713.8
2018-Jul-11 15:30N 35°01' E 139°43'713.7
2018-Jul-11 15:00N 35°08' E 139°44'612.7
2018-Jul-11 14:30N 35°14' E 139°46'611.5
2018-Jul-11 14:00N 35°19' E 139°43'612.0
2018-Jul-11 13:30N 35°25' E 139°44'713.4
2018-Jul-11 13:00N 35°29' E 139°51'712.4
2018-Jul-11 12:29N 35°33' E 139°57'4 0.6
2018-Jul-11 05:38N 35°30' E 140°02'0 0.3
2018-Jul-11 05:26N 35°30' E 140°02'3 4.9
2018-Jul-11 04:53N 35°31' E 139°58'513.0
2018-Jul-11 04:30N 35°29' E 139°53'714.1
2018-Jul-11 04:00N 35°24' E 139°47'612.5
2018-Jul-11 03:30N 35°18' E 139°44'612.9
2018-Jul-11 03:00N 35°12' E 139°47'714.9
2018-Jul-11 02:30N 35°05' E 139°45'814.7
2018-Jul-11 02:00N 34°58' E 139°44'711.7
2018-Jul-11 01:26N 34°52' E 139°48'1112.5
2018-Jul-11 00:34N 34°54' E 140°01'  
2018-Jul-06 14:16N 34°55' E 140°04'414.2
2018-Jul-06 14:00N 34°54' E 140°00'713.8
2018-Jul-06 13:30N 34°51' E 139°52'713.8
2018-Jul-06 12:59N 34°54' E 139°45'714.0
2018-Jul-06 12:30N 35°00' E 139°43'713.1
2018-Jul-06 12:00N 35°07' E 139°44'612.7
2018-Jul-06 11:30N 35°13' E 139°46'611.2
2018-Jul-06 11:00N 35°18' E 139°44'612.0
2018-Jul-06 10:31N 35°24' E 139°43'713.5
2018-Jul-06 10:00N 35°28' E 139°50'713.3
2018-Jul-06 09:30N 35°31' E 139°57'3 0.3
2018-Jul-06 00:18N 35°31' E 140°00'4 6.5
2018-Jul-05 23:43N 35°30' E 139°56'1 4.0
2018-Jul-05 23:30N 35°30' E 139°55'0 0.1
2018-Jul-05 22:57N 35°30' E 139°55'0 0.0
2018-Jul-05 22:24N 35°30' E 139°55'0 0.0
2018-Jul-05 21:54N 35°30' E 139°55'0 0.0
2018-Jul-05 21:30N 35°30' E 139°55'0 0.0
2018-Jul-05 20:51N 35°30' E 139°55'0 0.0
2018-Jul-05 20:27N 35°30' E 139°55'0 0.0
2018-Jul-05 19:57N 35°30' E 139°55'0 0.0
2018-Jul-05 19:30N 35°30' E 139°55'0 0.0
2018-Jul-05 17:27N 35°30' E 139°55'0 0.0
2018-Jul-05 17:00N 35°30' E 139°55'0 0.0
2018-Jul-05 16:30N 35°30' E 139°55'0 0.0
2018-Jul-05 15:45N 35°30' E 139°55'0 0.0
2018-Jul-05 15:30N 35°30' E 139°55'0 0.0
2018-Jul-05 14:48N 35°30' E 139°55'0 0.0
2018-Jul-05 11:39N 35°30' E 139°55'0 0.0
2018-Jul-05 11:09N 35°30' E 139°55'0 0.0
2018-Jul-05 10:51N 35°30' E 139°55'0 0.0
2018-Jul-05 09:51N 35°30' E 139°55'0 0.0
2018-Jul-05 09:27N 35°30' E 139°55'0 0.0
2018-Jul-05 09:00N 35°30' E 139°55'0 0.0
2018-Jul-05 08:30N 35°30' E 139°55'0 0.0
2018-Jul-05 08:00N 35°30' E 139°55'0 0.0
2018-Jul-05 07:30N 35°30' E 139°55'0 0.0
2018-Jul-05 06:54N 35°30' E 139°55'0 0.0
2018-Jul-05 06:15N 35°30' E 139°55'0 0.0
2018-Jul-05 05:51N 35°30' E 139°55'0 0.0
2018-Jul-05 05:27N 35°30' E 139°55'0 0.0
2018-Jul-05 04:51N 35°30' E 139°55'0 0.0
2018-Jul-05 03:15N 35°30' E 139°55'0 0.0
2018-Jul-05 02:57N 35°30' E 139°55'0 0.0
2018-Jul-05 02:30N 35°30' E 139°55'0 0.0
2018-Jul-05 00:06N 35°30' E 139°55'0 0.0
2018-Jul-04 23:51N 35°30' E 139°55'0 0.0
2018-Jul-04 23:15N 35°30' E 139°55'0 0.0
2018-Jul-04 22:51N 35°30' E 139°55'0 0.0
2018-Jul-04 22:27N 35°30' E 139°55'0 0.0
2018-Jul-04 21:54N 35°30' E 139°55'0 0.0
2018-Jul-04 21:30N 35°30' E 139°55'0 0.0
2018-Jul-04 20:57N 35°30' E 139°55'0 0.0
2018-Jul-04 20:30N 35°30' E 139°55'0 0.0
2018-Jul-04 19:51N 35°30' E 139°55'0 0.0
2018-Jul-04 19:06N 35°30' E 139°55'0 0.0
2018-Jul-04 18:45N 35°30' E 139°55'0 0.0
2018-Jul-04 18:12N 35°30' E 139°55'0 0.0
2018-Jul-04 17:51N 35°30' E 139°55'0 0.0
2018-Jul-04 17:18N 35°30' E 139°55'0 0.0
2018-Jul-04 16:57N 35°30' E 139°55'0 0.0
2018-Jul-04 16:27N 35°30' E 139°55'0 0.0
2018-Jul-04 15:36N 35°30' E 139°55'0 0.0
2018-Jul-04 15:30N 35°30' E 139°55'0 0.0
2018-Jul-04 15:00N 35°30' E 139°55'0 0.0
2018-Jul-04 14:30N 35°30' E 139°55'0 0.0
2018-Jul-04 13:57N 35°30' E 139°55'0 0.0
2018-Jul-04 13:27N 35°30' E 139°55'0 0.0
2018-Jul-04 13:00N 35°30' E 139°55'0 0.0
2018-Jul-04 12:18N 35°30' E 139°55'0 0.0
2018-Jul-04 11:57N 35°30' E 139°55'0 0.1
2018-Jul-04 11:27N 35°30' E 139°55'0 0.1
2018-Jul-04 10:51N 35°30' E 139°55'0 0.1
2018-Jul-04 10:15N 35°30' E 139°55'0 0.1
2018-Jul-04 09:42N 35°30' E 139°55'0 0.0
2018-Jul-04 09:30N 35°30' E 139°55'0 0.0
2018-Jul-04 08:42N 35°30' E 139°55'0 0.0
2018-Jul-04 08:30N 35°30' E 139°55'0 0.1
2018-Jul-04 07:57N 35°30' E 139°55'0 0.0
2018-Jul-04 07:24N 35°30' E 139°55'0 0.1
2018-Jul-04 06:48N 35°30' E 139°55'0 0.1
2018-Jul-04 06:27N 35°30' E 139°55'0 0.0
2018-Jul-04 05:51N 35°30' E 139°55'0 0.0
2018-Jul-04 05:21N 35°30' E 139°55'0 0.0
2018-Jul-04 04:57N 35°30' E 139°55'0 0.0
2018-Jul-04 04:21N 35°30' E 139°55'0 0.0
2018-Jul-04 03:51N 35°30' E 139°55'0 0.0
2018-Jul-04 03:15N 35°30' E 139°55'0 0.0
2018-Jul-04 02:48N 35°30' E 139°55'0 0.0
2018-Jul-04 02:30N 35°30' E 139°55'0 0.0
2018-Jul-04 01:54N 35°30' E 139°55'0 0.0
2018-Jul-04 01:27N 35°30' E 139°55'0 0.0
2018-Jul-04 00:18N 35°30' E 139°55'0 0.0
2018-Jul-03 23:57N 35°30' E 139°55'0 0.0
2018-Jul-03 23:27N 35°30' E 139°55'0 0.0
2018-Jul-03 22:51N 35°30' E 139°55'0 0.0
2018-Jul-03 22:30N 35°30' E 139°55'0 0.0
2018-Jul-03 22:00N 35°30' E 139°55'0 0.0
2018-Jul-03 21:24N 35°30' E 139°55'0 0.0
2018-Jul-03 20:51N 35°30' E 139°55'0 0.0
2018-Jul-03 20:30N 35°30' E 139°55'0 0.0
2018-Jul-03 19:57N 35°30' E 139°55'0 0.0
2018-Jul-03 19:30N 35°30' E 139°55'0 0.0
2018-Jul-03 19:00N 35°30' E 139°55'0 0.0
2018-Jul-03 18:27N 35°30' E 139°55'0 0.0
2018-Jul-03 17:54N 35°30' E 139°55'0 0.0
2018-Jul-03 17:30N 35°30' E 139°55'0 0.0
2018-Jul-03 16:57N 35°30' E 139°55'0 0.2
2018-Jul-03 16:30N 35°30' E 139°55'5 9.3
2018-Jul-03 16:00N 35°27' E 139°50'613.0
2018-Jul-03 15:30N 35°22' E 139°45'611.5
2018-Jul-03 15:00N 35°16' E 139°46'612.7
2018-Jul-03 14:30N 35°10' E 139°47'714.0
2018-Jul-03 14:00N 35°04' E 139°43'714.8
2018-Jul-03 13:30N 34°59' E 139°36'  

Dump ship's entire track history